createdAt,value
2023-11-30T00:02:24.581Z,99554.84
2023-11-30T00:04:52.382Z,99550.50
2023-11-30T00:07:18.778Z,99552.88
2023-11-30T00:09:45.254Z,99555.16
2023-11-30T00:12:11.699Z,99555.38
2023-11-30T00:14:38.080Z,99564.47
2023-11-30T00:17:04.476Z,99563.06
2023-11-30T00:19:30.854Z,99558.16
2023-11-30T00:21:58.571Z,99563.63
2023-11-30T00:24:25.028Z,99568.56
2023-11-30T00:26:51.449Z,99565.00
2023-11-30T00:29:17.853Z,99566.06
2023-11-30T00:31:44.452Z,99564.81
2023-11-30T00:34:11.013Z,99565.44
2023-11-30T00:36:37.406Z,99567.59
2023-11-30T00:39:05.252Z,99571.47
2023-11-30T00:41:31.681Z,99576.66
2023-11-30T00:43:58.113Z,99571.19
2023-11-30T00:46:24.616Z,99570.16
2023-11-30T00:48:51.081Z,99572.09
2023-11-30T00:51:17.479Z,99568.81
2023-11-30T00:53:43.993Z,99571.44
2023-11-30T00:56:12.277Z,99572.84
2023-11-30T00:58:38.772Z,99578.59
2023-11-30T01:01:05.546Z,99573.16
2023-11-30T01:03:32.140Z,99574.94
2023-11-30T01:05:58.588Z,99577.91
2023-11-30T01:08:24.990Z,99576.56
2023-11-30T01:10:51.408Z,99576.81
2023-11-30T01:13:19.106Z,99569.84
2023-11-30T01:15:45.732Z,99573.03
2023-11-30T01:18:12.331Z,99567.00
2023-11-30T01:20:42.726Z,99574.44
2023-11-30T01:23:09.173Z,99575.34
2023-11-30T01:25:35.641Z,99579.16
2023-11-30T01:28:02.050Z,99585.41
2023-11-30T01:30:29.856Z,99582.41
2023-11-30T01:32:56.491Z,99585.75
2023-11-30T01:35:22.914Z,99583.44
2023-11-30T01:37:49.320Z,99582.41
2023-11-30T01:40:16.014Z,99586.28
2023-11-30T01:42:42.735Z,99579.97
2023-11-30T01:45:10.521Z,99585.50
2023-11-30T01:47:38.516Z,99566.78
2023-11-30T01:50:06.181Z,99578.16
2023-11-30T01:52:32.806Z,99566.09
2023-11-30T01:55:02.889Z,99571.81
2023-11-30T01:57:30.187Z,99568.28
2023-11-30T01:59:57.246Z,99559.22
2023-11-30T02:02:24.332Z,99565.28
2023-11-30T02:04:53.950Z,99564.16
2023-11-30T02:07:20.562Z,99559.53
2023-11-30T02:09:47.197Z,99562.53
2023-11-30T02:12:13.654Z,99566.34
2023-11-30T02:14:40.103Z,99560.63
2023-11-30T02:17:06.514Z,99569.94
2023-11-30T02:19:32.913Z,99564.72
2023-11-30T02:22:00.659Z,99563.34
2023-11-30T02:24:27.042Z,99559.53
2023-11-30T02:26:53.606Z,99559.00
2023-11-30T02:29:20.171Z,99554.06
2023-11-30T02:31:46.745Z,99559.00
2023-11-30T02:34:13.295Z,99552.44
2023-11-30T02:36:39.724Z,99548.56
2023-11-30T02:39:07.504Z,99548.31
2023-11-30T02:41:33.968Z,99553.50
2023-11-30T02:44:00.487Z,99543.09
2023-11-30T02:46:26.912Z,99550.19
2023-11-30T02:48:53.432Z,99553.19
2023-11-30T02:51:19.889Z,99544.59
2023-11-30T02:53:46.289Z,99545.50
2023-11-30T02:56:14.105Z,99549.31
2023-11-30T02:58:40.646Z,99546.63
2023-11-30T03:01:07.319Z,99544.44
2023-11-30T03:03:33.809Z,99543.56
2023-11-30T03:06:00.408Z,99543.63
2023-11-30T03:08:26.840Z,99540.03
2023-11-30T03:10:53.804Z,99534.53
2023-11-30T03:13:21.634Z,99536.75
2023-11-30T03:15:48.008Z,99536.72
2023-11-30T03:18:14.579Z,99536.50
2023-11-30T03:20:41.112Z,99538.94
2023-11-30T03:23:07.569Z,99532.59
2023-11-30T03:25:34.053Z,99525.81
2023-11-30T03:28:00.639Z,99528.31
2023-11-30T03:30:28.733Z,99522.84
2023-11-30T03:32:56.409Z,99521.63
2023-11-30T03:35:22.941Z,99518.16
2023-11-30T03:37:49.666Z,99525.44
2023-11-30T03:40:16.171Z,99511.53
2023-11-30T03:42:42.781Z,99518.41
2023-11-30T03:45:10.284Z,99512.19
2023-11-30T03:47:38.150Z,99517.53
2023-11-30T03:50:05.383Z,99507.44
2023-11-30T03:52:31.828Z,99505.88
2023-11-30T03:54:58.262Z,99513.53
2023-11-30T03:57:24.713Z,99500.41
2023-11-30T03:59:51.338Z,99500.41
2023-11-30T04:02:18.163Z,99502.91
2023-11-30T04:04:46.080Z,99507.50
2023-11-30T04:07:12.539Z,99497.59
2023-11-30T04:09:39.116Z,99505.84
2023-11-30T04:12:05.968Z,99499.44
2023-11-30T04:14:32.423Z,99496.25
2023-11-30T04:17:02.405Z,99500.53
2023-11-30T04:19:30.777Z,99499.78
2023-11-30T04:21:58.504Z,99502.06
2023-11-30T04:24:24.913Z,99499.13
2023-11-30T04:26:52.882Z,99498.13
2023-11-30T04:29:19.338Z,99502.53
2023-11-30T04:31:45.746Z,99502.75
2023-11-30T04:34:12.299Z,99502.31
2023-11-30T04:36:38.731Z,99509.56
2023-11-30T04:39:06.482Z,99501.28
2023-11-30T04:41:32.902Z,99498.94
2023-11-30T04:43:59.342Z,99492.31
2023-11-30T04:46:25.774Z,99489.16
2023-11-30T04:48:52.579Z,99494.38
2023-11-30T04:51:19.098Z,99496.22
2023-11-30T04:53:45.525Z,99496.34
2023-11-30T04:56:13.383Z,99504.81
2023-11-30T04:58:39.805Z,99506.91
2023-11-30T05:01:06.453Z,99506.13
2023-11-30T05:03:33.157Z,99503.56
2023-11-30T05:05:59.726Z,99516.22
2023-11-30T05:08:26.283Z,99514.22
2023-11-30T05:10:52.707Z,99517.22
2023-11-30T05:13:20.462Z,99520.94
2023-11-30T05:15:47.617Z,99516.31
2023-11-30T05:18:14.176Z,99523.16
2023-11-30T05:20:40.656Z,99520.94
2023-11-30T05:23:07.247Z,99521.00
2023-11-30T05:25:33.798Z,99516.97
2023-11-30T05:28:00.440Z,99521.72
2023-11-30T05:30:29.001Z,99520.91
2023-11-30T05:32:55.575Z,99522.84
2023-11-30T05:35:22.114Z,99530.28
2023-11-30T05:37:48.514Z,99532.94
2023-11-30T05:40:15.347Z,99532.88
2023-11-30T05:42:41.765Z,99529.00
2023-11-30T05:45:09.358Z,99529.78
2023-11-30T05:47:37.261Z,99533.59
2023-11-30T05:50:04.043Z,99529.53
2023-11-30T05:52:30.512Z,99526.88
2023-11-30T05:54:57.018Z,99532.81
2023-11-30T05:57:23.496Z,99537.31
2023-11-30T05:59:50.069Z,99531.66
2023-11-30T06:02:16.544Z,99532.38
2023-11-30T06:04:50.840Z,99534.00
2023-11-30T06:07:17.548Z,99532.34
2023-11-30T06:09:43.941Z,99538.19
2023-11-30T06:12:10.388Z,99545.81
2023-11-30T06:14:36.834Z,99541.94
2023-11-30T06:17:03.459Z,99548.19
2023-11-30T06:19:30.051Z,99542.34
2023-11-30T06:21:57.848Z,99550.53
2023-11-30T06:24:24.277Z,99552.22
2023-11-30T06:26:50.873Z,99564.03
2023-11-30T06:29:17.352Z,99561.56
2023-11-30T06:31:43.781Z,99572.47
2023-11-30T06:34:10.191Z,99572.53
2023-11-30T06:36:36.608Z,99567.63
2023-11-30T06:39:04.389Z,99577.78
2023-11-30T06:41:30.861Z,99577.34
2023-11-30T06:43:57.477Z,99578.44
2023-11-30T06:46:24.475Z,99579.06
2023-11-30T06:48:51.129Z,99580.25
2023-11-30T06:51:18.061Z,99585.66
2023-11-30T06:53:44.751Z,99591.44
2023-11-30T06:56:13.200Z,99588.47
2023-11-30T06:58:40.176Z,99583.47
2023-11-30T07:01:07.022Z,99587.06
2023-11-30T07:03:33.740Z,99586.66
2023-11-30T07:06:10.325Z,99580.28
2023-11-30T07:08:36.889Z,99574.81
2023-11-30T07:11:07.095Z,99577.88
2023-11-30T07:13:34.923Z,99574.38
2023-11-30T07:16:01.596Z,99576.56
2023-11-30T07:18:28.189Z,99576.94
2023-11-30T07:20:54.738Z,99569.38
2023-11-30T07:23:21.187Z,99573.84
2023-11-30T07:25:47.688Z,99575.22
2023-11-30T07:28:14.138Z,99568.34
2023-11-30T07:30:42.069Z,99576.63
2023-11-30T07:33:08.887Z,99572.22
2023-11-30T07:35:36.561Z,99579.44
2023-11-30T07:38:03.008Z,99582.41
2023-11-30T07:40:29.428Z,99576.84
2023-11-30T07:42:55.946Z,99582.13
2023-11-30T07:45:23.941Z,99581.13
2023-11-30T07:47:51.869Z,99579.13
2023-11-30T07:50:18.365Z,99580.25
2023-11-30T07:52:44.785Z,99580.66
2023-11-30T07:55:11.355Z,99581.38
2023-11-30T07:57:37.997Z,99594.97
2023-11-30T08:00:05.866Z,99587.25
2023-11-30T08:02:32.278Z,99592.50
2023-11-30T08:05:00.041Z,99572.94
2023-11-30T08:07:26.502Z,99586.03
2023-11-30T08:09:53.035Z,99581.81
2023-11-30T08:12:19.763Z,99585.56
2023-11-30T08:14:46.182Z,99588.38
2023-11-30T08:17:12.668Z,99581.94
2023-11-30T08:19:39.125Z,99579.72
2023-11-30T08:22:06.964Z,99575.13
2023-11-30T08:24:33.588Z,99588.16
2023-11-30T08:27:00.025Z,99584.19
2023-11-30T08:29:26.495Z,99584.78
2023-11-30T08:31:52.926Z,99594.53
2023-11-30T08:34:19.372Z,99593.59
2023-11-30T08:36:45.834Z,99587.53
2023-11-30T08:39:13.588Z,99589.28
2023-11-30T08:41:40.073Z,99587.34
2023-11-30T08:44:06.558Z,99587.88
2023-11-30T08:46:33.012Z,99590.03
2023-11-30T08:48:59.557Z,99584.84
2023-11-30T08:51:26.032Z,99576.69
2023-11-30T08:53:52.478Z,99578.09
2023-11-30T08:56:20.442Z,99576.50
2023-11-30T08:58:46.864Z,99564.69
2023-11-30T09:01:13.314Z,99568.75
2023-11-30T09:03:40.910Z,99562.47
2023-11-30T09:06:09.435Z,99567.16
2023-11-30T09:08:35.926Z,99568.81
2023-11-30T09:11:02.359Z,99571.16
2023-11-30T09:13:30.176Z,99567.31
2023-11-30T09:15:56.658Z,99562.28
2023-11-30T09:18:23.233Z,99566.25
2023-11-30T09:20:49.712Z,99556.84
2023-11-30T09:23:16.120Z,99563.69
2023-11-30T09:25:42.811Z,99563.09
2023-11-30T09:28:09.556Z,99553.84
2023-11-30T09:30:37.379Z,99554.66
2023-11-30T09:33:03.941Z,99559.31
2023-11-30T09:35:30.425Z,99550.22
2023-11-30T09:37:59.365Z,99544.19
2023-11-30T09:40:27.231Z,99550.97
2023-11-30T09:42:53.707Z,99544.47
2023-11-30T09:45:22.166Z,99552.03
2023-11-30T09:47:50.209Z,99548.53
2023-11-30T09:50:16.670Z,99550.09
2023-11-30T09:52:43.444Z,99538.66
2023-11-30T09:55:11.821Z,99548.91
2023-11-30T09:57:39.088Z,99549.00
2023-11-30T10:00:06.796Z,99545.59
2023-11-30T10:02:33.376Z,99541.69
2023-11-30T10:05:01.138Z,99540.44
2023-11-30T10:07:29.400Z,99536.69
2023-11-30T10:09:55.904Z,99537.81
2023-11-30T10:12:22.379Z,99531.53
2023-11-30T10:14:48.821Z,99532.28
2023-11-30T10:17:15.512Z,99524.78
2023-11-30T10:19:42.246Z,99524.50
2023-11-30T10:22:10.201Z,99523.59
2023-11-30T10:24:36.702Z,99527.53
2023-11-30T10:27:07.530Z,99523.44
2023-11-30T10:29:41.227Z,99514.59
2023-11-30T10:32:10.592Z,99514.22
2023-11-30T10:34:43.767Z,99513.69
2023-11-30T10:37:12.216Z,99515.41
2023-11-30T10:39:43.804Z,99505.34
2023-11-30T10:42:13.991Z,99508.59
2023-11-30T10:44:43.903Z,99503.13
2023-11-30T10:47:10.958Z,99504.53
2023-11-30T10:49:37.902Z,99500.72
2023-11-30T10:52:05.924Z,99499.59
2023-11-30T10:54:38.541Z,99496.59
2023-11-30T10:57:05.518Z,99497.41
2023-11-30T10:59:32.493Z,99494.44
2023-11-30T11:01:59.525Z,99497.81
2023-11-30T11:04:27.674Z,99494.09
2023-11-30T11:07:01.051Z,99490.06
2023-11-30T11:09:27.557Z,99488.97
2023-11-30T11:12:02.199Z,99488.13
2023-11-30T11:14:32.410Z,99487.59
2023-11-30T11:17:03.995Z,99476.09
2023-11-30T11:19:31.507Z,99481.78
2023-11-30T11:21:57.906Z,99488.38
2023-11-30T11:24:24.406Z,99479.38
2023-11-30T11:26:57.966Z,99482.88
2023-11-30T11:29:30.959Z,99480.97
2023-11-30T11:32:05.796Z,99470.88
2023-11-30T11:34:32.227Z,99469.19
2023-11-30T11:36:58.687Z,99471.97
2023-11-30T11:39:25.166Z,99465.97
2023-11-30T11:41:52.294Z,99472.81
2023-11-30T11:44:21.444Z,99474.16
2023-11-30T11:46:49.067Z,99476.34
2023-11-30T11:49:15.550Z,99472.50
2023-11-30T11:51:43.386Z,99465.72
2023-11-30T11:54:16.779Z,99470.09
2023-11-30T11:56:46.657Z,99470.34
2023-11-30T11:59:13.169Z,99468.97
2023-11-30T12:01:41.004Z,99475.72
2023-11-30T12:04:07.606Z,99471.09
2023-11-30T12:06:34.152Z,99471.78
2023-11-30T12:09:10.633Z,99473.28
2023-11-30T12:11:39.212Z,99463.41
2023-11-30T12:14:05.884Z,99468.69
2023-11-30T12:16:32.403Z,99470.41
2023-11-30T12:19:00.327Z,99469.25
2023-11-30T12:21:26.872Z,99472.75
2023-11-30T12:23:53.397Z,99471.06
2023-11-30T12:26:19.815Z,99470.31
2023-11-30T12:28:46.227Z,99471.25
2023-11-30T12:31:12.747Z,99468.34
2023-11-30T12:33:39.318Z,99473.91
2023-11-30T12:36:08.051Z,99473.38
2023-11-30T12:38:34.508Z,99470.03
2023-11-30T12:41:00.936Z,99477.69
2023-11-30T12:43:27.330Z,99481.91
2023-11-30T12:45:54.078Z,99478.06
2023-11-30T12:48:20.721Z,99478.34
2023-11-30T12:50:48.514Z,99480.03
2023-11-30T12:53:16.629Z,99487.53
2023-11-30T12:55:43.202Z,99483.59
2023-11-30T12:58:09.663Z,99483.44
2023-11-30T13:00:36.162Z,99480.19
2023-11-30T13:03:02.710Z,99483.94
2023-11-30T13:05:29.171Z,99487.22
2023-11-30T13:07:56.703Z,99483.88
2023-11-30T13:10:24.496Z,99482.53
2023-11-30T13:12:50.921Z,99483.19
2023-11-30T13:15:18.762Z,99483.19
2023-11-30T13:17:45.261Z,99486.72
2023-11-30T13:20:12.520Z,99482.34
2023-11-30T13:22:40.258Z,99472.47
2023-11-30T13:25:06.933Z,99471.13
2023-11-30T13:27:34.757Z,99470.81
2023-11-30T13:30:01.287Z,99470.63
2023-11-30T13:32:28.056Z,99473.06
2023-11-30T13:34:54.531Z,99468.63
2023-11-30T13:37:20.950Z,99473.38
2023-11-30T13:39:47.412Z,99483.47
2023-11-30T13:42:13.925Z,99476.09
2023-11-30T13:44:41.764Z,99476.38
2023-11-30T13:47:08.195Z,99471.44
2023-11-30T13:49:34.722Z,99475.03
2023-11-30T13:52:01.581Z,99467.63
2023-11-30T13:54:28.047Z,99470.63
2023-11-30T13:56:54.445Z,99467.09
2023-11-30T13:59:20.960Z,99469.00
2023-11-30T14:01:48.876Z,99469.00
2023-11-30T14:04:15.379Z,99468.19
2023-11-30T14:06:42.413Z,99470.28
2023-11-30T14:09:09.136Z,99474.06
2023-11-30T14:11:35.555Z,99471.97
2023-11-30T14:14:02.001Z,99466.78
2023-11-30T14:16:28.447Z,99470.03
2023-11-30T14:18:56.220Z,99471.31
2023-11-30T14:21:22.801Z,99465.34
2023-11-30T14:23:49.222Z,99477.19
2023-11-30T14:26:15.872Z,99476.38
2023-11-30T14:28:42.316Z,99472.56
2023-11-30T14:31:09.070Z,99474.72
2023-11-30T14:33:35.511Z,99476.91
2023-11-30T14:36:03.609Z,99471.97
2023-11-30T14:38:30.075Z,99476.03
2023-11-30T14:40:56.706Z,99480.19
2023-11-30T14:43:23.147Z,99480.75
2023-11-30T14:45:49.812Z,99476.84
2023-11-30T14:48:16.320Z,99472.56
2023-11-30T14:50:42.819Z,99476.38
2023-11-30T14:53:10.639Z,99474.72
2023-11-30T14:55:37.105Z,99473.66
2023-11-30T14:58:03.645Z,99471.19
2023-11-30T15:00:30.111Z,99469.78
2023-11-30T15:02:56.538Z,99467.91
2023-11-30T15:05:22.949Z,99469.81
2023-11-30T15:07:49.332Z,99474.75
2023-11-30T15:10:17.087Z,99472.03
2023-11-30T15:12:43.578Z,99481.00
2023-11-30T15:15:14.357Z,99481.56
2023-11-30T15:17:43.449Z,99478.28
2023-11-30T15:20:11.167Z,99494.72
2023-11-30T15:22:37.696Z,99486.50
2023-11-30T15:25:05.089Z,99496.59
2023-11-30T15:27:33.101Z,99493.00
2023-11-30T15:29:59.620Z,99491.13
2023-11-30T15:32:26.005Z,99500.13
2023-11-30T15:34:52.478Z,99496.06
2023-11-30T15:37:18.912Z,99500.19
2023-11-30T15:39:45.429Z,99502.63
2023-11-30T15:42:11.980Z,99498.53
2023-11-30T15:44:42.233Z,99499.91
2023-11-30T15:47:08.679Z,99503.19
2023-11-30T15:49:35.124Z,99503.19
2023-11-30T15:52:01.519Z,99497.13
2023-11-30T15:54:28.000Z,99503.44
2023-11-30T15:56:54.449Z,99505.59
2023-11-30T15:59:20.878Z,99504.22
2023-11-30T16:01:48.695Z,99507.56
2023-11-30T16:04:15.552Z,99512.44
2023-11-30T16:06:42.014Z,99507.00
2023-11-30T16:09:10.801Z,99506.47
2023-11-30T16:11:37.346Z,99515.47
2023-11-30T16:14:05.036Z,99510.28
2023-11-30T16:16:31.501Z,99516.56
2023-11-30T16:18:59.407Z,99522.03
2023-11-30T16:21:27.846Z,99514.91
2023-11-30T16:23:54.852Z,99517.13
2023-11-30T16:26:23.605Z,99518.69
2023-11-30T16:28:50.029Z,99523.09
2023-11-30T16:31:16.650Z,99517.31
2023-11-30T16:33:43.245Z,99516.75
2023-11-30T16:36:11.751Z,99520.38
2023-11-30T16:38:39.876Z,99520.34
2023-11-30T16:41:09.313Z,99522.25
2023-11-30T16:43:35.760Z,99520.69
2023-11-30T16:46:02.547Z,99523.91
2023-11-30T16:48:29.219Z,99518.72
2023-11-30T16:50:55.696Z,99522.53
2023-11-30T16:53:25.080Z,99517.28
2023-11-30T16:55:52.907Z,99516.56
2023-11-30T16:58:19.284Z,99513.47
2023-11-30T17:00:45.710Z,99515.31
2023-11-30T17:03:12.152Z,99514.59
2023-11-30T17:05:39.279Z,99507.41
2023-11-30T17:08:05.722Z,99506.06
2023-11-30T17:10:33.465Z,99506.69
2023-11-30T17:12:59.892Z,99499.34
2023-11-30T17:15:27.516Z,99508.34
2023-11-30T17:17:53.959Z,99498.25
2023-11-30T17:20:20.455Z,99510.78
2023-11-30T17:22:46.904Z,99494.41
2023-11-30T17:25:13.381Z,99496.59
2023-11-30T17:27:41.144Z,99497.34
2023-11-30T17:30:08.405Z,99493.31
2023-11-30T17:32:34.965Z,99493.84
2023-11-30T17:35:01.894Z,99495.78
2023-11-30T17:37:28.464Z,99493.03
2023-11-30T17:39:55.002Z,99495.22
2023-11-30T17:42:21.520Z,99496.34
2023-11-30T17:44:49.264Z,99497.94
2023-11-30T17:47:15.709Z,99494.66
2023-11-30T17:49:42.089Z,99496.06
2023-11-30T17:52:08.502Z,99492.25
2023-11-30T17:54:34.949Z,99497.69
2023-11-30T17:57:01.395Z,99500.44
2023-11-30T17:59:27.804Z,99499.06
2023-11-30T18:01:55.707Z,99499.34
2023-11-30T18:04:22.154Z,99499.91
2023-11-30T18:06:48.583Z,99512.16
2023-11-30T18:09:15.331Z,99513.75
2023-11-30T18:11:41.796Z,99524.34
2023-11-30T18:14:08.201Z,99516.19
2023-11-30T18:16:34.712Z,99523.50
2023-11-30T18:19:02.511Z,99522.19
2023-11-30T18:21:30.189Z,99529.25
2023-11-30T18:23:56.683Z,99529.16
2023-11-30T18:26:23.066Z,99533.84
2023-11-30T18:28:49.588Z,99518.75
2023-11-30T18:31:20.753Z,99528.28
2023-11-30T18:33:49.738Z,99527.75
2023-11-30T18:36:17.628Z,99528.97
2023-11-30T18:38:50.415Z,99526.34
2023-11-30T18:41:18.371Z,99523.31
2023-11-30T18:43:44.822Z,99527.97
2023-11-30T18:46:13.367Z,99531.28
2023-11-30T18:48:40.087Z,99534.63
2023-11-30T18:51:07.320Z,99537.84
2023-11-30T18:53:35.132Z,99541.16
2023-11-30T18:56:02.671Z,99538.72
2023-11-30T18:58:29.079Z,99532.91
2023-11-30T19:00:55.648Z,99540.19
2023-11-30T19:03:22.455Z,99539.63
2023-11-30T19:05:49.017Z,99548.88
2023-11-30T19:08:15.440Z,99549.81
2023-11-30T19:10:43.549Z,99554.03
2023-11-30T19:13:10.091Z,99556.31
2023-11-30T19:15:36.517Z,99551.63
2023-11-30T19:18:03.059Z,99556.22
2023-11-30T19:20:29.537Z,99544.41
2023-11-30T19:22:55.940Z,99551.78
2023-11-30T19:25:22.418Z,99549.59
2023-11-30T19:27:50.249Z,99549.34
2023-11-30T19:30:16.916Z,99556.59
2023-11-30T19:32:43.380Z,99547.22
2023-11-30T19:35:10.102Z,99556.13
2023-11-30T19:37:36.638Z,99558.34
2023-11-30T19:40:03.575Z,99568.50
2023-11-30T19:42:30.028Z,99567.69
2023-11-30T19:44:57.817Z,99561.41
2023-11-30T19:47:24.469Z,99562.38
2023-11-30T19:49:50.978Z,99563.63
2023-11-30T19:52:17.381Z,99570.25
2023-11-30T19:54:43.826Z,99566.19
2023-11-30T19:57:10.235Z,99568.13
2023-11-30T19:59:36.636Z,99565.22
2023-11-30T20:02:04.908Z,99571.44
2023-11-30T20:04:31.433Z,99564.78
2023-11-30T20:06:57.994Z,99566.69
2023-11-30T20:09:24.515Z,99570.50
2023-11-30T20:11:51.045Z,99564.75
2023-11-30T20:14:17.538Z,99567.88
2023-11-30T20:16:44.137Z,99568.66
2023-11-30T20:19:12.142Z,99574.97
2023-11-30T20:21:38.699Z,99575.78
2023-11-30T20:24:05.814Z,99574.47
2023-11-30T20:26:32.194Z,99580.56
2023-11-30T20:28:58.585Z,99577.75
2023-11-30T20:31:25.032Z,99577.09
2023-11-30T20:33:51.636Z,99576.00
2023-11-30T20:36:19.398Z,99581.13
2023-11-30T20:38:45.850Z,99579.16
2023-11-30T20:41:12.297Z,99583.81
2023-11-30T20:43:38.674Z,99582.75
2023-11-30T20:46:05.628Z,99585.75
2023-11-30T20:48:32.281Z,99586.31
2023-11-30T20:50:58.786Z,99582.97
2023-11-30T20:53:26.656Z,99583.66
2023-11-30T20:55:53.044Z,99590.28
2023-11-30T20:58:19.623Z,99587.03
2023-11-30T21:00:46.103Z,99595.88
2023-11-30T21:03:12.606Z,99590.88
2023-11-30T21:05:39.068Z,99591.19
2023-11-30T21:08:05.729Z,99604.22
2023-11-30T21:10:33.477Z,99605.41
2023-11-30T21:12:59.959Z,99608.59
2023-11-30T21:15:27.894Z,99610.34
2023-11-30T21:17:54.421Z,99610.75
2023-11-30T21:20:20.996Z,99606.69
2023-11-30T21:22:47.468Z,99609.53
2023-11-30T21:25:14.017Z,99609.13
2023-11-30T21:27:41.818Z,99606.56
2023-11-30T21:30:09.194Z,99615.53
2023-11-30T21:32:35.634Z,99627.00
2023-11-30T21:35:02.135Z,99612.75
2023-11-30T21:37:28.612Z,99613.75
2023-11-30T21:39:55.110Z,99618.53
2023-11-30T21:42:21.550Z,99617.78
2023-11-30T21:44:49.281Z,99617.09
2023-11-30T21:47:15.705Z,99621.00
2023-11-30T21:49:47.035Z,99609.63
2023-11-30T21:52:13.570Z,99616.72
2023-11-30T21:54:40.022Z,99609.97
2023-11-30T21:57:06.431Z,99616.47
2023-11-30T21:59:33.012Z,99607.84
2023-11-30T22:02:00.936Z,99616.34
2023-11-30T22:04:27.550Z,99614.88
2023-11-30T22:06:54.068Z,99614.91
2023-11-30T22:09:20.542Z,99618.25
2023-11-30T22:11:47.000Z,99615.78
2023-11-30T22:14:13.458Z,99616.81
2023-11-30T22:16:40.123Z,99622.41
2023-11-30T22:19:08.061Z,99615.28
2023-11-30T22:21:34.576Z,99621.28
2023-11-30T22:24:01.016Z,99618.88
2023-11-30T22:26:27.507Z,99621.94
2023-11-30T22:28:53.996Z,99618.31
2023-11-30T22:31:20.401Z,99619.94
2023-11-30T22:33:46.911Z,99613.44
2023-11-30T22:36:14.787Z,99615.84
2023-11-30T22:38:45.887Z,99621.59
2023-11-30T22:41:13.074Z,99618.09
2023-11-30T22:43:39.623Z,99619.41
2023-11-30T22:46:06.308Z,99620.03
2023-11-30T22:48:33.784Z,99620.28
2023-11-30T22:51:00.403Z,99628.63
2023-11-30T22:53:28.119Z,99634.91
2023-11-30T22:55:54.739Z,99635.84
2023-11-30T22:58:21.306Z,99633.59
2023-11-30T23:00:47.924Z,99634.50
2023-11-30T23:03:14.534Z,99638.16
2023-11-30T23:05:41.483Z,99640.19
2023-11-30T23:08:07.917Z,99633.34
2023-11-30T23:10:35.704Z,99638.47
2023-11-30T23:13:02.313Z,99636.78
2023-11-30T23:15:28.898Z,99638.03
2023-11-30T23:17:55.387Z,99642.94
2023-11-30T23:20:21.909Z,99651.47
2023-11-30T23:22:48.353Z,99650.50
2023-11-30T23:25:14.772Z,99649.47
2023-11-30T23:27:42.588Z,99650.63
2023-11-30T23:30:09.448Z,99651.16
2023-11-30T23:32:35.911Z,99648.09
2023-11-30T23:35:02.354Z,99644.56
2023-11-30T23:37:28.781Z,99646.22
2023-11-30T23:39:55.208Z,99654.81
2023-11-30T23:42:21.636Z,99651.56
2023-11-30T23:44:49.475Z,99652.50
2023-11-30T23:47:15.913Z,99653.63
2023-11-30T23:49:42.361Z,99656.03
2023-11-30T23:52:08.846Z,99656.50
2023-11-30T23:54:35.407Z,99658.50
2023-11-30T23:57:01.866Z,99666.78
2023-11-30T23:59:28.304Z,99668.56
